FMNN

Fascene Airport

Nosy Be, Madagascar
METAR FMNN 241400Z 29004KT 9999 FEW020 29/20 Q1014
Observed Flight Rules
Sep-24 @ 14:00 UTC (10 hours ago) Visual Flight Rules
Wind Visibility Clouds
290° at 4 knots 10,000+ meters
  • Few at 2,000' AGL
Temperatures Readings
Current 29°C / 84°F
Dewpoint 20°C / 68°F
Humidity 58%
Altimeter 29.94" Hg
Pressure 1014 hPa
Elevation 9
METAR FMNN 241400Z 29004KT 9999 FEW020 29/20 Q1014
Observed Flight Rules
Sep-24 @ 14:00 UTC
(10 hours ago)
VFR
Wind Visibility
290° at 4 knots 10,000+ meters
Clouds
  • Few at 2,000' AGL
Temperature Dewpoint
29°C / 84°F 20°C / 68°F
Humidity Altimeter Pressure
58% 29.94" Hg 1014 hPa